Time;durP1;ratioP1;P1;durP2;ratioP2;P2;SDS_P1;SDS_P2;PMS_P1;PMS_P2;Temp;Humidity;BMP_temperature;BMP_pressure;BME280_temperature;BME280_humidity;BME280_pressure;Samples;Min_cycle;Max_cycle;Signal;HPM_P1;HPM_P2
2023/04/06 00:02:02;;;;;;;14.47;8.50;;;;;;;;;;5004470;28;20195;-76
2023/04/06 00:04:27;;;;;;;12.07;7.70;;;;;;;;;;5003292;28;20191;-75
2023/04/06 00:06:52;;;;;;;14.10;8.30;;;;;;;;;;5004873;28;20195;-76
2023/04/06 00:09:18;;;;;;;13.73;7.80;;;;;;;;;;5006301;28;20238;-74
2023/04/06 00:11:43;;;;;;;15.67;8.23;;;;;;;;;;5007264;28;20727;-75
2023/04/06 00:14:08;;;;;;;10.00;7.37;;;;;;;;;;5008067;28;20186;-75
2023/04/06 00:16:33;;;;;;;13.50;8.03;;;;;;;;;;5001269;28;20202;-75
2023/04/06 00:18:58;;;;;;;12.33;8.00;;;;;;;;;;5005494;28;20194;-75
2023/04/06 00:21:25;;;;;;;11.93;7.80;;;;;;;;;;5004529;28;20208;-75
2023/04/06 00:23:50;;;;;;;11.23;6.90;;;;;;;;;;5009125;28;20683;-75
2023/04/06 00:26:15;;;;;;;14.03;7.63;;;;;;;;;;5005641;28;20175;-76
2023/04/06 00:28:40;;;;;;;17.77;8.33;;;;;;;;;;5013467;28;20249;-75
2023/04/06 00:31:06;;;;;;;13.27;7.87;;;;;;;;;;5012923;28;20233;-77
2023/04/06 00:33:32;;;;;;;12.43;7.37;;;;;;;;;;5005917;28;20187;-75
2023/04/06 00:35:57;;;;;;;13.30;7.57;;;;;;;;;;5016588;28;20233;-75
2023/04/06 00:38:22;;;;;;;13.70;8.27;;;;;;;;;;5015177;28;20198;-78
2023/04/06 00:40:48;;;;;;;10.53;7.23;;;;;;;;;;5012837;28;20240;-75
2023/04/06 00:43:13;;;;;;;11.47;7.87;;;;;;;;;;5016104;28;20206;-75
2023/04/06 00:45:39;;;;;;;11.97;7.83;;;;;;;;;;5013039;28;20271;-75
2023/04/06 00:48:05;;;;;;;13.87;8.00;;;;;;;;;;5009498;28;20194;-75
2023/04/06 00:50:30;;;;;;;14.27;7.40;;;;;;;;;;5013244;28;20178;-75
2023/04/06 00:52:55;;;;;;;11.30;6.43;;;;;;;;;;5013012;28;20179;-75
2023/04/06 00:55:20;;;;;;;12.47;7.33;;;;;;;;;;5015541;28;20661;-75
2023/04/06 00:57:46;;;;;;;14.33;8.77;;;;;;;;;;5014659;28;20697;-76
2023/04/06 01:00:12;;;;;;;13.60;7.70;;;;;;;;;;5016776;23;20318;-66
2023/04/06 01:02:37;;;;;;;13.90;7.73;;;;;;;;;;4986778;28;20233;-67
2023/04/06 01:05:03;;;;;;;16.00;8.30;;;;;;;;;;4991586;28;20218;-67
2023/04/06 01:07:28;;;;;;;14.43;7.73;;;;;;;;;;4985830;28;20176;-67
2023/04/06 01:09:54;;;;;;;13.30;7.37;;;;;;;;;;4993120;28;20238;-67
2023/04/06 01:12:19;;;;;;;11.63;7.33;;;;;;;;;;4987950;28;20187;-67
2023/04/06 01:14:44;;;;;;;15.60;8.27;;;;;;;;;;4989424;28;20186;-68
2023/04/06 01:17:10;;;;;;;11.13;6.57;;;;;;;;;;4986890;28;20177;-66
2023/04/06 01:19:35;;;;;;;13.57;8.53;;;;;;;;;;4981829;28;20199;-67
2023/04/06 01:22:01;;;;;;;17.23;8.10;;;;;;;;;;4990562;28;20207;-67
2023/04/06 01:24:26;;;;;;;13.17;7.53;;;;;;;;;;4986816;28;20222;-66
2023/04/06 01:26:51;;;;;;;11.43;7.53;;;;;;;;;;4985218;28;20188;-67
2023/04/06 01:29:16;;;;;;;12.87;7.60;;;;;;;;;;4988597;28;20236;-66
2023/04/06 01:31:41;;;;;;;12.47;7.67;;;;;;;;;;4987267;28;20184;-67
2023/04/06 01:34:07;;;;;;;11.47;8.00;;;;;;;;;;4982072;28;20196;-67
2023/04/06 01:36:32;;;;;;;12.40;8.03;;;;;;;;;;4980945;28;20181;-67
2023/04/06 01:38:57;;;;;;;9.50;7.07;;;;;;;;;;4978217;28;20184;-68
2023/04/06 01:41:22;;;;;;;13.30;7.23;;;;;;;;;;4975344;28;20677;-69
2023/04/06 01:43:48;;;;;;;14.20;8.83;;;;;;;;;;4976225;28;20184;-68
2023/04/06 01:46:14;;;;;;;15.70;7.97;;;;;;;;;;4985311;28;20253;-67
2023/04/06 01:48:39;;;;;;;15.60;7.70;;;;;;;;;;4977442;28;20231;-68
2023/04/06 01:51:04;;;;;;;13.70;7.83;;;;;;;;;;4975929;28;20228;-68
2023/04/06 01:53:30;;;;;;;10.43;7.07;;;;;;;;;;4977634;28;20182;-67
2023/04/06 01:55:55;;;;;;;10.10;7.20;;;;;;;;;;4977850;28;20180;-67
2023/04/06 01:58:20;;;;;;;11.63;7.47;;;;;;;;;;4982927;28;20644;-67
2023/04/06 02:00:45;;;;;;;11.57;7.30;;;;;;;;;;4981556;28;20222;-67
2023/04/06 02:03:11;;;;;;;12.20;7.03;;;;;;;;;;4976979;28;20210;-67
2023/04/06 02:05:37;;;;;;;12.50;7.30;;;;;;;;;;4984212;28;20175;-67
2023/04/06 02:08:06;;;;;;;13.47;8.00;;;;;;;;;;4979767;28;20180;-67
2023/04/06 02:10:32;;;;;;;14.13;7.07;;;;;;;;;;4986842;28;20222;-67
2023/04/06 02:12:57;;;;;;;12.33;7.47;;;;;;;;;;4987612;28;20187;-67
2023/04/06 02:15:22;;;;;;;13.67;8.07;;;;;;;;;;4985850;28;20183;-67
2023/04/06 02:17:48;;;;;;;14.97;7.90;;;;;;;;;;4987457;28;20184;-66
2023/04/06 02:20:13;;;;;;;13.10;7.87;;;;;;;;;;4985784;28;20211;-68
2023/04/06 02:22:38;;;;;;;11.27;7.90;;;;;;;;;;4986616;28;20203;-66
2023/04/06 02:25:04;;;;;;;13.93;7.87;;;;;;;;;;4980196;28;20195;-65
2023/04/06 02:27:29;;;;;;;11.43;7.53;;;;;;;;;;4985780;28;20176;-67
2023/04/06 02:29:54;;;;;;;10.93;8.07;;;;;;;;;;4976595;28;20203;-67
2023/04/06 02:32:19;;;;;;;12.50;7.60;;;;;;;;;;4976245;28;20177;-67
2023/04/06 02:34:45;;;;;;;10.80;7.57;;;;;;;;;;4983070;28;20234;-66
2023/04/06 02:37:10;;;;;;;11.53;7.13;;;;;;;;;;4985552;28;20218;-66
2023/04/06 02:39:35;;;;;;;11.10;7.57;;;;;;;;;;4978323;28;20255;-65
2023/04/06 02:42:01;;;;;;;11.80;6.93;;;;;;;;;;4974889;28;20231;-66
2023/04/06 02:44:26;;;;;;;12.80;7.60;;;;;;;;;;4975287;28;20183;-66
2023/04/06 02:46:51;;;;;;;13.83;8.43;;;;;;;;;;4974004;28;20548;-66
2023/04/06 02:49:16;;;;;;;13.67;7.73;;;;;;;;;;4973435;28;20204;-66
2023/04/06 02:51:41;;;;;;;13.17;7.93;;;;;;;;;;4974044;28;20172;-67
2023/04/06 02:54:07;;;;;;;13.30;8.10;;;;;;;;;;4975327;28;20316;-66
2023/04/06 02:56:32;;;;;;;15.13;9.07;;;;;;;;;;4972496;28;20530;-67
2023/04/06 02:58:57;;;;;;;12.63;8.10;;;;;;;;;;4973321;28;20180;-66
2023/04/06 03:01:23;;;;;;;13.93;7.87;;;;;;;;;;4973782;28;20214;-66
2023/04/06 03:03:48;;;;;;;9.77;7.27;;;;;;;;;;4977639;28;20263;-67
2023/04/06 03:06:13;;;;;;;14.17;8.13;;;;;;;;;;4975676;28;20710;-67
2023/04/06 03:08:38;;;;;;;11.40;8.23;;;;;;;;;;4980238;28;20190;-67
2023/04/06 03:11:04;;;;;;;17.20;8.57;;;;;;;;;;4985598;28;20686;-67
2023/04/06 03:13:29;;;;;;;15.10;8.90;;;;;;;;;;4983650;28;20199;-67
2023/04/06 03:15:54;;;;;;;14.57;8.80;;;;;;;;;;4979628;28;20271;-67
2023/04/06 03:18:23;;;;;;;14.40;8.87;;;;;;;;;;4980924;28;20194;-67
2023/04/06 03:20:48;;;;;;;11.60;7.53;;;;;;;;;;4975342;28;20221;-67
2023/04/06 03:23:14;;;;;;;14.13;8.50;;;;;;;;;;4974634;28;20207;-67
2023/04/06 03:25:39;;;;;;;14.60;9.77;;;;;;;;;;4973877;28;21409;-66
2023/04/06 03:28:05;;;;;;;15.03;9.67;;;;;;;;;;4976534;28;20560;-66
2023/04/06 03:30:30;;;;;;;14.23;8.93;;;;;;;;;;4981090;28;20195;-65
2023/04/06 03:32:55;;;;;;;15.93;9.37;;;;;;;;;;4981929;28;20561;-67
2023/04/06 03:35:20;;;;;;;13.87;9.23;;;;;;;;;;4975359;28;20191;-67
2023/04/06 03:37:45;;;;;;;15.27;9.60;;;;;;;;;;4984667;28;20271;-67
2023/04/06 03:40:11;;;;;;;18.60;10.53;;;;;;;;;;4985702;28;20242;-67
2023/04/06 03:42:36;;;;;;;18.27;10.40;;;;;;;;;;4987060;28;20208;-67
2023/04/06 03:45:01;;;;;;;14.13;9.53;;;;;;;;;;4980559;28;20207;-68
2023/04/06 03:47:26;;;;;;;14.77;10.10;;;;;;;;;;4979646;28;20180;-67
2023/04/06 03:49:51;;;;;;;15.27;10.37;;;;;;;;;;4983739;28;20251;-67
2023/04/06 03:52:17;;;;;;;16.63;10.20;;;;;;;;;;4977338;28;20212;-67
2023/04/06 03:54:42;;;;;;;19.20;10.23;;;;;;;;;;4987155;28;20667;-66
2023/04/06 03:57:07;;;;;;;15.80;9.63;;;;;;;;;;4986266;28;20190;-68
2023/04/06 03:59:32;;;;;;;14.13;9.23;;;;;;;;;;4982338;28;20214;-67
2023/04/06 04:01:57;;;;;;;14.30;9.60;;;;;;;;;;4988116;28;20269;-66
2023/04/06 04:04:23;;;;;;;16.30;9.30;;;;;;;;;;4977245;28;20268;-67
2023/04/06 04:06:48;;;;;;;14.53;9.43;;;;;;;;;;4980727;28;20171;-67
2023/04/06 04:09:13;;;;;;;16.50;9.73;;;;;;;;;;4982330;28;20227;-67
2023/04/06 04:11:38;;;;;;;17.63;9.73;;;;;;;;;;4987228;28;20180;-67
2023/04/06 04:14:04;;;;;;;16.77;9.37;;;;;;;;;;4986544;28;20208;-67
2023/04/06 04:16:29;;;;;;;20.13;10.50;;;;;;;;;;4982608;28;20191;-67
2023/04/06 04:18:54;;;;;;;22.13;11.00;;;;;;;;;;4983805;28;20607;-67
2023/04/06 04:21:20;;;;;;;19.20;10.87;;;;;;;;;;4983248;28;20247;-67
2023/04/06 04:23:45;;;;;;;14.97;9.40;;;;;;;;;;4984185;28;20183;-67
2023/04/06 04:26:10;;;;;;;17.37;10.33;;;;;;;;;;4977071;28;20176;-67
2023/04/06 04:28:35;;;;;;;19.37;11.03;;;;;;;;;;4974177;28;20555;-66
2023/04/06 04:31:00;;;;;;;18.23;9.90;;;;;;;;;;4978957;28;20319;-66
2023/04/06 04:33:26;;;;;;;20.40;10.87;;;;;;;;;;4982611;28;20218;-67
2023/04/06 04:35:51;;;;;;;17.60;9.87;;;;;;;;;;4978194;28;20226;-67
2023/04/06 04:38:16;;;;;;;18.07;11.07;;;;;;;;;;4983992;28;20846;-67
2023/04/06 04:40:41;;;;;;;18.43;10.10;;;;;;;;;;4980917;28;20208;-66
2023/04/06 04:43:06;;;;;;;16.00;10.03;;;;;;;;;;4982364;28;20207;-66
2023/04/06 04:45:32;;;;;;;16.87;10.77;;;;;;;;;;4976780;28;20181;-66
2023/04/06 04:47:57;;;;;;;15.77;10.00;;;;;;;;;;4976003;28;20180;-66
2023/04/06 04:50:22;;;;;;;19.30;10.73;;;;;;;;;;4980623;28;20199;-66
2023/04/06 04:52:47;;;;;;;17.80;10.10;;;;;;;;;;4973809;28;20184;-68
2023/04/06 04:55:13;;;;;;;16.93;10.33;;;;;;;;;;4974180;28;20363;-66
2023/04/06 04:57:38;;;;;;;16.73;10.20;;;;;;;;;;4971736;28;20183;-66
2023/04/06 05:00:03;;;;;;;21.63;10.10;;;;;;;;;;4977965;28;20694;-67
2023/04/06 05:02:29;;;;;;;18.47;10.23;;;;;;;;;;4977287;28;20197;-66
2023/04/06 05:04:54;;;;;;;15.27;9.27;;;;;;;;;;4986419;28;20171;-67
2023/04/06 05:07:20;;;;;;;16.00;9.90;;;;;;;;;;4971666;28;20177;-67
2023/04/06 05:09:46;;;;;;;16.30;9.43;;;;;;;;;;4977868;28;20200;-68
2023/04/06 05:12:11;;;;;;;17.63;11.30;;;;;;;;;;4989527;28;20293;-67
2023/04/06 05:14:36;;;;;;;16.10;10.20;;;;;;;;;;4989557;28;20538;-67
2023/04/06 05:17:01;;;;;;;19.03;10.03;;;;;;;;;;4986788;28;20187;-67
2023/04/06 05:19:26;;;;;;;17.87;11.37;;;;;;;;;;4981214;28;20716;-67
2023/04/06 05:21:52;;;;;;;16.87;10.20;;;;;;;;;;4977726;28;20207;-68
2023/04/06 05:24:17;;;;;;;15.63;9.93;;;;;;;;;;4974427;28;20172;-67
2023/04/06 05:26:42;;;;;;;17.03;10.23;;;;;;;;;;4979965;28;20258;-67
2023/04/06 05:29:07;;;;;;;18.47;11.17;;;;;;;;;;4975652;28;20335;-67
2023/04/06 05:31:33;;;;;;;17.27;10.20;;;;;;;;;;4990458;28;20180;-67
2023/04/06 05:33:58;;;;;;;16.57;9.87;;;;;;;;;;4986557;28;20207;-67
2023/04/06 05:36:23;;;;;;;19.40;10.73;;;;;;;;;;4976715;28;20223;-67
2023/04/06 05:38:50;;;;;;;18.97;10.00;;;;;;;;;;4986125;28;20180;-67
2023/04/06 05:41:15;;;;;;;17.27;10.13;;;;;;;;;;4983434;28;20206;-67
2023/04/06 05:43:40;;;;;;;14.30;9.07;;;;;;;;;;4976894;28;20172;-67
2023/04/06 05:46:06;;;;;;;17.73;10.60;;;;;;;;;;4980423;28;20195;-67
2023/04/06 05:48:31;;;;;;;16.20;10.60;;;;;;;;;;4983745;28;20191;-67
2023/04/06 05:50:56;;;;;;;20.90;11.33;;;;;;;;;;4978477;28;20197;-66
2023/04/06 05:53:21;;;;;;;16.70;9.73;;;;;;;;;;4983009;28;20242;-67
2023/04/06 05:55:47;;;;;;;17.00;10.70;;;;;;;;;;4984079;28;20242;-67
2023/04/06 05:58:12;;;;;;;16.43;10.97;;;;;;;;;;4983026;28;20191;-66
2023/04/06 06:00:37;;;;;;;20.17;10.60;;;;;;;;;;4981391;28;20303;-67
2023/04/06 06:03:05;;;;;;;18.90;10.17;;;;;;;;;;4988558;28;20258;-66
2023/04/06 06:05:31;;;;;;;24.53;11.93;;;;;;;;;;4986855;28;20548;-66
2023/04/06 06:07:56;;;;;;;15.87;10.57;;;;;;;;;;4979158;28;20184;-66
2023/04/06 06:10:21;;;;;;;18.03;10.47;;;;;;;;;;4983292;28;20203;-67
2023/04/06 06:12:46;;;;;;;18.90;10.97;;;;;;;;;;4979230;28;20562;-67
2023/04/06 06:15:12;;;;;;;18.13;10.20;;;;;;;;;;4986985;28;20222;-67
2023/04/06 06:17:38;;;;;;;20.23;10.03;;;;;;;;;;4983043;28;20290;-66
2023/04/06 06:20:05;;;;;;;19.07;10.50;;;;;;;;;;4981441;28;20204;-67
2023/04/06 06:22:30;;;;;;;17.90;10.27;;;;;;;;;;4974245;28;20204;-67
2023/04/06 06:24:55;;;;;;;16.10;10.47;;;;;;;;;;4979851;28;20195;-67
2023/04/06 06:27:21;;;;;;;15.20;9.97;;;;;;;;;;4973953;28;20176;-67
2023/04/06 06:29:46;;;;;;;19.67;10.60;;;;;;;;;;4977834;28;20218;-67
2023/04/06 06:32:11;;;;;;;16.77;10.13;;;;;;;;;;4982653;28;20191;-67
2023/04/06 06:34:36;;;;;;;21.43;11.70;;;;;;;;;;4981876;28;20179;-67
2023/04/06 06:37:02;;;;;;;17.27;10.73;;;;;;;;;;4984901;28;20622;-67
2023/04/06 06:39:27;;;;;;;20.43;11.63;;;;;;;;;;4984248;28;20685;-67
2023/04/06 06:41:54;;;;;;;22.53;11.17;;;;;;;;;;4976412;28;20606;-67
2023/04/06 06:44:20;;;;;;;16.43;10.63;;;;;;;;;;4976186;28;20399;-66
2023/04/06 06:46:45;;;;;;;15.60;9.87;;;;;;;;;;4974624;28;20663;-67
2023/04/06 06:49:12;;;;;;;17.87;10.07;;;;;;;;;;4976557;28;20184;-66
2023/04/06 06:51:37;;;;;;;17.10;10.47;;;;;;;;;;4974715;28;20263;-66
2023/04/06 06:54:02;;;;;;;16.50;10.80;;;;;;;;;;4972727;28;20288;-66
2023/04/06 06:56:27;;;;;;;20.40;11.27;;;;;;;;;;4979210;28;20199;-66
2023/04/06 06:58:53;;;;;;;19.07;10.80;;;;;;;;;;4983043;28;20199;-67
2023/04/06 07:01:18;;;;;;;16.23;10.00;;;;;;;;;;5020039;23;20242;-74
2023/04/06 07:03:43;;;;;;;21.03;11.27;;;;;;;;;;5003187;28;20202;-74
2023/04/06 07:06:08;;;;;;;18.40;10.60;;;;;;;;;;5010272;28;20217;-73
2023/04/06 07:08:34;;;;;;;19.90;11.17;;;;;;;;;;5020185;28;20347;-74
2023/04/06 07:10:59;;;;;;;20.03;12.07;;;;;;;;;;5008676;28;20195;-74
2023/04/06 07:13:26;;;;;;;16.97;11.07;;;;;;;;;;5003710;28;20194;-74
2023/04/06 07:15:51;;;;;;;18.87;11.17;;;;;;;;;;5008008;28;20190;-74
2023/04/06 07:18:17;;;;;;;17.30;10.50;;;;;;;;;;5010078;28;20175;-74
2023/04/06 07:20:42;;;;;;;17.27;11.23;;;;;;;;;;5010180;28;20675;-73
2023/04/06 07:23:08;;;;;;;20.50;11.33;;;;;;;;;;5005841;28;20218;-74
2023/04/06 07:25:33;;;;;;;18.97;10.70;;;;;;;;;;5011789;28;20235;-74
2023/04/06 07:27:58;;;;;;;18.47;10.97;;;;;;;;;;5007238;28;20276;-74
2023/04/06 07:30:26;;;;;;;21.23;10.97;;;;;;;;;;5000187;28;20249;-74
2023/04/06 07:32:51;;;;;;;20.47;11.37;;;;;;;;;;4997389;28;20181;-73
2023/04/06 07:35:16;;;;;;;20.90;11.90;;;;;;;;;;5005769;28;20192;-75
2023/04/06 07:37:42;;;;;;;20.33;12.57;;;;;;;;;;5004194;28;20683;-74
2023/04/06 07:40:07;;;;;;;22.00;11.67;;;;;;;;;;5007822;28;20233;-74
2023/04/06 07:42:33;;;;;;;20.43;10.87;;;;;;;;;;5011025;28;20195;-73
2023/04/06 07:44:58;;;;;;;16.60;10.20;;;;;;;;;;5012487;28;20183;-73
2023/04/06 07:47:23;;;;;;;18.83;10.30;;;;;;;;;;5009981;28;20272;-73
2023/04/06 07:49:48;;;;;;;21.90;11.43;;;;;;;;;;5012132;28;20238;-74
2023/04/06 07:52:13;;;;;;;19.07;11.77;;;;;;;;;;5004059;28;20190;-74
2023/04/06 07:54:40;;;;;;;19.27;11.03;;;;;;;;;;5003770;28;20179;-73
2023/04/06 07:57:05;;;;;;;22.23;11.57;;;;;;;;;;5002714;28;20179;-75
2023/04/06 07:59:30;;;;;;;20.30;11.63;;;;;;;;;;5013611;28;20273;-74
2023/04/06 08:01:56;;;;;;;22.03;11.63;;;;;;;;;;5006062;28;20546;-75
2023/04/06 08:04:21;;;;;;;20.03;11.07;;;;;;;;;;5002765;28;20175;-74
2023/04/06 08:06:46;;;;;;;21.40;11.73;;;;;;;;;;5012695;28;20573;-75
2023/04/06 08:09:11;;;;;;;18.80;11.50;;;;;;;;;;5012739;28;20185;-75
2023/04/06 08:11:36;;;;;;;18.67;11.50;;;;;;;;;;5013590;28;20191;-75
2023/04/06 08:14:02;;;;;;;22.07;12.67;;;;;;;;;;5012756;28;20171;-74
2023/04/06 08:16:27;;;;;;;22.40;12.07;;;;;;;;;;5007907;28;20171;-75
2023/04/06 08:18:52;;;;;;;20.77;11.90;;;;;;;;;;5007600;28;20556;-74
2023/04/06 08:21:17;;;;;;;25.33;12.57;;;;;;;;;;5007100;28;20301;-74
2023/04/06 08:23:43;;;;;;;19.00;11.53;;;;;;;;;;5009691;28;20274;-75
2023/04/06 08:26:09;;;;;;;19.93;11.93;;;;;;;;;;5008832;28;20183;-75
2023/04/06 08:28:34;;;;;;;20.47;11.47;;;;;;;;;;5008207;28;20175;-74
2023/04/06 08:31:03;;;;;;;20.33;11.97;;;;;;;;;;5005813;28;20201;-74
2023/04/06 08:33:28;;;;;;;21.13;12.40;;;;;;;;;;5011431;28;20186;-74
2023/04/06 08:35:53;;;;;;;21.23;13.00;;;;;;;;;;5010608;28;20175;-75
2023/04/06 08:38:18;;;;;;;23.67;14.23;;;;;;;;;;5010766;28;20660;-75
2023/04/06 08:40:44;;;;;;;25.03;12.03;;;;;;;;;;5011859;28;20203;-73
2023/04/06 08:43:12;;;;;;;21.50;12.77;;;;;;;;;;5014706;28;20210;-75
2023/04/06 08:45:38;;;;;;;21.70;12.87;;;;;;;;;;5003952;28;20179;-75
2023/04/06 08:48:04;;;;;;;24.80;13.17;;;;;;;;;;5014786;28;20641;-73
2023/04/06 08:50:30;;;;;;;20.83;12.80;;;;;;;;;;5018011;28;20191;-75
2023/04/06 08:52:55;;;;;;;20.30;11.70;;;;;;;;;;5016450;28;20185;-75
2023/04/06 08:55:22;;;;;;;19.90;12.63;;;;;;;;;;5013879;28;20265;-75
2023/04/06 08:57:47;;;;;;;23.73;13.07;;;;;;;;;;5014331;28;20182;-75
2023/04/06 09:00:13;;;;;;;21.47;12.53;;;;;;;;;;5015922;28;20222;-74
2023/04/06 09:02:40;;;;;;;22.67;13.67;;;;;;;;;;5016243;28;20203;-74
2023/04/06 09:05:07;;;;;;;26.53;12.30;;;;;;;;;;5010248;28;20205;-74
2023/04/06 09:07:32;;;;;;;21.47;13.07;;;;;;;;;;5005269;28;20167;-73
2023/04/06 09:09:57;;;;;;;23.67;14.33;;;;;;;;;;5028454;28;20225;-73
2023/04/06 09:12:24;;;;;;;26.47;13.53;;;;;;;;;;5035704;28;20163;-75
2023/04/06 09:14:49;;;;;;;22.83;13.30;;;;;;;;;;5011490;28;20241;-75
2023/04/06 09:17:21;;;;;;;22.60;13.30;;;;;;;;;;5019290;28;20207;-75
2023/04/06 09:19:47;;;;;;;25.60;14.67;;;;;;;;;;5008145;28;20206;-75
2023/04/06 09:22:12;;;;;;;25.20;14.27;;;;;;;;;;5015921;28;20207;-75
2023/04/06 09:24:44;;;;;;;27.03;15.40;;;;;;;;;;5009708;28;20167;-75
2023/04/06 09:27:10;;;;;;;27.80;15.57;;;;;;;;;;5013746;28;20181;-75
2023/04/06 09:29:36;;;;;;;36.57;15.07;;;;;;;;;;5015244;28;20179;-75
2023/04/06 09:32:02;;;;;;;27.50;14.20;;;;;;;;;;5019040;28;20589;-74
2023/04/06 09:34:27;;;;;;;27.37;15.23;;;;;;;;;;5009534;28;20187;-74
2023/04/06 09:36:53;;;;;;;30.40;16.07;;;;;;;;;;5014480;28;20179;-75
2023/04/06 09:39:20;;;;;;;22.90;13.73;;;;;;;;;;5013208;28;20558;-75
2023/04/06 09:41:48;;;;;;;29.63;15.23;;;;;;;;;;5014946;28;20558;-75
2023/04/06 09:44:13;;;;;;;21.80;13.33;;;;;;;;;;4998004;28;20218;-74
2023/04/06 09:46:40;;;;;;;23.10;13.17;;;;;;;;;;5005467;28;20196;-74
2023/04/06 09:49:06;;;;;;;17.87;11.07;;;;;;;;;;5009205;28;20182;-75
2023/04/06 09:51:35;;;;;;;23.57;12.67;;;;;;;;;;5010888;28;20183;-75
2023/04/06 09:54:02;;;;;;;20.90;11.53;;;;;;;;;;5001931;28;20203;-74
2023/04/06 09:56:30;;;;;;;23.13;13.50;;;;;;;;;;4994322;28;20182;-75
2023/04/06 09:59:00;;;;;;;23.27;12.17;;;;;;;;;;5004030;28;20182;-75
2023/04/06 10:01:27;;;;;;;19.20;11.37;;;;;;;;;;5004509;28;20726;-75
2023/04/06 10:04:28;;;;;;;19.33;9.63;;;;;;;;;;5003644;28;20671;-75
2023/04/06 10:06:55;;;;;;;17.00;10.40;;;;;;;;;;4938467;29;20181;-74
2023/04/06 10:09:24;;;;;;;12.57;8.83;;;;;;;;;;4992139;28;20188;-75
2023/04/06 10:11:50;;;;;;;14.50;9.70;;;;;;;;;;5013626;28;20250;-74
2023/04/06 10:14:15;;;;;;;13.50;9.57;;;;;;;;;;5014121;28;20214;-75
2023/04/06 10:16:40;;;;;;;17.33;9.47;;;;;;;;;;5012653;28;20270;-76
2023/04/06 10:19:18;;;;;;;17.93;9.23;;;;;;;;;;5013207;28;20263;-74
2023/04/06 10:21:45;;;;;;;14.27;7.63;;;;;;;;;;5008973;28;20289;-74
2023/04/06 10:24:10;;;;;;;13.00;8.23;;;;;;;;;;5007694;28;20218;-74
2023/04/06 10:26:36;;;;;;;11.63;8.20;;;;;;;;;;5008935;28;21258;-75
2023/04/06 10:29:04;;;;;;;11.13;7.13;;;;;;;;;;5011901;28;20174;-75
2023/04/06 10:31:29;;;;;;;11.60;6.87;;;;;;;;;;5009665;28;20574;-75
2023/04/06 10:33:59;;;;;;;9.57;6.33;;;;;;;;;;5008761;28;20182;-74
2023/04/06 10:36:26;;;;;;;11.63;7.13;;;;;;;;;;5011059;28;20653;-75
2023/04/06 10:38:58;;;;;;;9.40;6.93;;;;;;;;;;5012101;28;20186;-75
2023/04/06 10:41:25;;;;;;;11.63;6.60;;;;;;;;;;5013803;28;20195;-75
2023/04/06 10:43:56;;;;;;;12.03;6.10;;;;;;;;;;5011499;28;20263;-75
2023/04/06 10:46:29;;;;;;;12.17;6.17;;;;;;;;;;5014089;28;20179;-75
2023/04/06 10:48:54;;;;;;;9.67;6.60;;;;;;;;;;5014422;28;20179;-76
2023/04/06 10:51:27;;;;;;;10.27;6.43;;;;;;;;;;5011582;28;20201;-76
2023/04/06 10:53:52;;;;;;;9.73;6.33;;;;;;;;;;5005856;28;20175;-75
2023/04/06 10:56:21;;;;;;;12.30;6.63;;;;;;;;;;5012950;28;20220;-74
2023/04/06 10:58:51;;;;;;;8.07;5.70;;;;;;;;;;5013358;28;20178;-74
2023/04/06 11:01:17;;;;;;;8.77;6.27;;;;;;;;;;5008618;28;20254;-75
2023/04/06 11:03:43;;;;;;;9.87;5.97;;;;;;;;;;5010991;28;20179;-75
2023/04/06 11:06:09;;;;;;;11.90;6.87;;;;;;;;;;5011917;28;20186;-75
2023/04/06 11:08:34;;;;;;;10.40;6.50;;;;;;;;;;5013426;28;20318;-75
2023/04/06 11:11:06;;;;;;;7.73;5.80;;;;;;;;;;5012737;28;20289;-75
2023/04/06 11:13:38;;;;;;;8.13;5.73;;;;;;;;;;5014016;28;20213;-75
2023/04/06 11:16:03;;;;;;;9.97;5.40;;;;;;;;;;5012336;28;20185;-75
2023/04/06 11:18:29;;;;;;;8.43;5.37;;;;;;;;;;5013425;28;20175;-75
2023/04/06 11:20:54;;;;;;;9.47;5.93;;;;;;;;;;5012809;28;20199;-75
2023/04/06 11:23:26;;;;;;;9.47;6.50;;;;;;;;;;5013810;28;20577;-74
2023/04/06 11:25:52;;;;;;;11.43;6.13;;;;;;;;;;5012965;28;20171;-75
2023/04/06 11:28:17;;;;;;;7.43;5.40;;;;;;;;;;5011024;28;20175;-74
2023/04/06 11:30:43;;;;;;;7.77;5.47;;;;;;;;;;5009353;28;20248;-74
2023/04/06 11:33:08;;;;;;;10.17;6.20;;;;;;;;;;5013174;28;20677;-74
2023/04/06 11:35:33;;;;;;;9.17;6.27;;;;;;;;;;5010872;28;20656;-74
2023/04/06 11:38:02;;;;;;;9.03;6.00;;;;;;;;;;5006681;28;20188;-75
2023/04/06 11:40:29;;;;;;;12.37;6.07;;;;;;;;;;5012856;28;20238;-75
2023/04/06 11:42:55;;;;;;;9.00;5.67;;;;;;;;;;5003098;28;20211;-73
2023/04/06 11:45:22;;;;;;;7.73;5.50;;;;;;;;;;5013568;28;20226;-74
2023/04/06 11:47:55;;;;;;;8.37;5.73;;;;;;;;;;5007902;28;20560;-74
2023/04/06 11:50:20;;;;;;;9.23;6.17;;;;;;;;;;5013200;28;20659;-75
2023/04/06 11:52:46;;;;;;;8.47;6.03;;;;;;;;;;5008132;28;20203;-74
2023/04/06 11:55:15;;;;;;;11.47;6.40;;;;;;;;;;5009135;28;20183;-73
2023/04/06 11:57:40;;;;;;;9.10;6.07;;;;;;;;;;5004333;28;20250;-74
2023/04/06 12:00:06;;;;;;;7.60;5.27;;;;;;;;;;5011124;28;20234;-74
2023/04/06 12:02:32;;;;;;;9.63;5.60;;;;;;;;;;5013646;28;20633;-74
2023/04/06 12:04:57;;;;;;;10.27;6.27;;;;;;;;;;5004946;28;20171;-73
2023/04/06 12:07:22;;;;;;;8.43;5.77;;;;;;;;;;5006822;28;20653;-74
2023/04/06 12:09:47;;;;;;;8.23;6.17;;;;;;;;;;5011507;28;20236;-74
2023/04/06 12:12:13;;;;;;;8.77;5.93;;;;;;;;;;5008848;28;20175;-74
2023/04/06 12:14:38;;;;;;;8.77;5.77;;;;;;;;;;5012588;28;20756;-74
2023/04/06 12:17:03;;;;;;;10.17;6.47;;;;;;;;;;5004286;28;20658;-74
2023/04/06 12:19:28;;;;;;;12.97;7.27;;;;;;;;;;5012961;28;20640;-73
2023/04/06 12:21:54;;;;;;;10.67;6.93;;;;;;;;;;5009925;28;20206;-74
2023/04/06 12:24:19;;;;;;;16.27;7.10;;;;;;;;;;5011487;28;20286;-74
2023/04/06 12:26:45;;;;;;;11.93;7.07;;;;;;;;;;5009637;28;20265;-73
2023/04/06 12:29:10;;;;;;;11.50;7.67;;;;;;;;;;5012616;28;20664;-74
2023/04/06 12:31:36;;;;;;;12.03;6.67;;;;;;;;;;5002087;28;20269;-74
2023/04/06 12:34:03;;;;;;;11.03;6.70;;;;;;;;;;5003800;28;20178;-74
2023/04/06 12:36:28;;;;;;;12.63;7.63;;;;;;;;;;5011142;28;20205;-74
2023/04/06 12:38:53;;;;;;;10.83;7.30;;;;;;;;;;5009366;28;20175;-74
2023/04/06 12:41:18;;;;;;;9.83;7.03;;;;;;;;;;5010493;28;20191;-75
2023/04/06 12:43:44;;;;;;;11.60;7.73;;;;;;;;;;5010952;28;20195;-74
2023/04/06 12:46:10;;;;;;;11.77;7.13;;;;;;;;;;5011648;28;20185;-74
2023/04/06 12:48:36;;;;;;;10.33;7.23;;;;;;;;;;5008934;28;20190;-75
2023/04/06 12:51:02;;;;;;;13.43;7.53;;;;;;;;;;5012603;28;20669;-75
2023/04/06 12:53:28;;;;;;;12.07;7.60;;;;;;;;;;5007306;28;20184;-75
2023/04/06 12:55:54;;;;;;;12.57;8.03;;;;;;;;;;5005844;28;20236;-75
2023/04/06 12:58:19;;;;;;;13.77;8.13;;;;;;;;;;5010663;28;20589;-75
2023/04/06 13:00:45;;;;;;;15.30;9.07;;;;;;;;;;5026717;23;20229;-67
2023/04/06 13:03:10;;;;;;;16.67;8.80;;;;;;;;;;5012939;28;20359;-67
2023/04/06 13:05:35;;;;;;;12.30;8.47;;;;;;;;;;5021036;28;20256;-68
2023/04/06 13:08:01;;;;;;;17.10;8.93;;;;;;;;;;4987513;28;20192;-68
2023/04/06 13:10:26;;;;;;;13.90;8.27;;;;;;;;;;5013041;28;20205;-67
2023/04/06 13:12:51;;;;;;;11.47;7.77;;;;;;;;;;5019433;28;20258;-67
2023/04/06 13:15:16;;;;;;;17.10;8.90;;;;;;;;;;5009811;28;20175;-68
2023/04/06 13:17:42;;;;;;;12.63;8.07;;;;;;;;;;5019143;28;20593;-68
2023/04/06 13:20:07;;;;;;;13.77;9.43;;;;;;;;;;5020866;28;20572;-67
2023/04/06 13:22:32;;;;;;;12.90;8.93;;;;;;;;;;5020175;28;20209;-68
2023/04/06 13:24:57;;;;;;;17.10;8.73;;;;;;;;;;5019425;28;20171;-68
2023/04/06 13:27:23;;;;;;;14.33;9.97;;;;;;;;;;5008729;28;20190;-68
2023/04/06 13:29:48;;;;;;;14.30;9.50;;;;;;;;;;5024301;28;20170;-68
2023/04/06 13:32:13;;;;;;;15.33;9.60;;;;;;;;;;5020066;28;20191;-68
2023/04/06 13:34:40;;;;;;;15.00;10.63;;;;;;;;;;5019679;28;20557;-68
2023/04/06 13:37:05;;;;;;;12.40;8.47;;;;;;;;;;5025143;28;20181;-68
2023/04/06 13:39:31;;;;;;;12.70;9.17;;;;;;;;;;5023055;28;20171;-68
2023/04/06 13:41:57;;;;;;;15.33;8.27;;;;;;;;;;5027159;28;20272;-68
2023/04/06 13:44:22;;;;;;;13.13;9.53;;;;;;;;;;5021377;28;20168;-68
2023/04/06 13:46:47;;;;;;;20.17;8.97;;;;;;;;;;5021197;28;20190;-68
2023/04/06 13:49:13;;;;;;;12.80;8.23;;;;;;;;;;5012597;28;20183;-68
2023/04/06 13:51:38;;;;;;;13.83;8.37;;;;;;;;;;5021085;28;20214;-67
2023/04/06 13:54:04;;;;;;;13.43;8.57;;;;;;;;;;5015910;28;20213;-67
2023/04/06 13:56:29;;;;;;;16.30;9.30;;;;;;;;;;5023441;28;20699;-67
2023/04/06 13:58:55;;;;;;;17.73;9.53;;;;;;;;;;5016615;28;20175;-68
2023/04/06 14:01:20;;;;;;;15.50;10.13;;;;;;;;;;5026809;28;20238;-67
2023/04/06 14:03:47;;;;;;;17.13;10.97;;;;;;;;;;5018237;28;20226;-67
2023/04/06 14:06:12;;;;;;;16.33;10.50;;;;;;;;;;5012307;28;20266;-67
2023/04/06 14:08:37;;;;;;;15.83;10.17;;;;;;;;;;5016353;28;20641;-67
2023/04/06 14:11:03;;;;;;;16.33;10.37;;;;;;;;;;5017426;28;20296;-68
2023/04/06 14:13:28;;;;;;;18.03;10.70;;;;;;;;;;5018201;28;20170;-67
2023/04/06 14:15:54;;;;;;;15.47;9.80;;;;;;;;;;5022421;28;20643;-68
2023/04/06 14:18:19;;;;;;;16.60;10.33;;;;;;;;;;5026580;28;20194;-67